sensor_id;sensor_type;location;lat;lon;timestamp;P1;durP1;ratioP1;P2;durP2;ratioP2
60430;SDS011;46285;45.122;20.726;2022-08-21T00:02:00;18.75;;;13.63;;
60430;SDS011;46285;45.122;20.726;2022-08-21T00:04:26;18.48;;;11.00;;
60430;SDS011;46285;45.122;20.726;2022-08-21T00:06:52;20.52;;;13.57;;
60430;SDS011;46285;45.122;20.726;2022-08-21T00:09:20;19.38;;;12.70;;
60430;SDS011;46285;45.122;20.726;2022-08-21T00:11:46;22.42;;;13.50;;
60430;SDS011;46285;45.122;20.726;2022-08-21T00:14:13;18.20;;;13.07;;
60430;SDS011;46285;45.122;20.726;2022-08-21T00:16:39;24.33;;;13.07;;
60430;SDS011;46285;45.122;20.726;2022-08-21T00:19:06;26.15;;;14.40;;
60430;SDS011;46285;45.122;20.726;2022-08-21T00:21:33;20.58;;;14.38;;
60430;SDS011;46285;45.122;20.726;2022-08-21T00:24:00;18.15;;;13.45;;
60430;SDS011;46285;45.122;20.726;2022-08-21T00:26:26;17.88;;;12.82;;
60430;SDS011;46285;45.122;20.726;2022-08-21T00:28:52;22.77;;;13.73;;
60430;SDS011;46285;45.122;20.726;2022-08-21T00:31:19;19.42;;;13.48;;
60430;SDS011;46285;45.122;20.726;2022-08-21T00:33:45;23.00;;;13.52;;
60430;SDS011;46285;45.122;20.726;2022-08-21T00:36:12;18.30;;;13.57;;
60430;SDS011;46285;45.122;20.726;2022-08-21T00:38:38;19.23;;;13.68;;
60430;SDS011;46285;45.122;20.726;2022-08-21T00:41:06;20.88;;;13.15;;
60430;SDS011;46285;45.122;20.726;2022-08-21T00:43:34;20.88;;;13.25;;
60430;SDS011;46285;45.122;20.726;2022-08-21T00:46:01;19.50;;;13.32;;
60430;SDS011;46285;45.122;20.726;2022-08-21T00:48:27;17.92;;;12.63;;
60430;SDS011;46285;45.122;20.726;2022-08-21T00:51:01;21.52;;;14.18;;
60430;SDS011;46285;45.122;20.726;2022-08-21T00:53:28;19.42;;;13.48;;
60430;SDS011;46285;45.122;20.726;2022-08-21T00:55:55;21.00;;;14.35;;
60430;SDS011;46285;45.122;20.726;2022-08-21T00:58:22;21.20;;;13.80;;
60430;SDS011;46285;45.122;20.726;2022-08-21T01:00:49;21.55;;;14.13;;
60430;SDS011;46285;45.122;20.726;2022-08-21T01:03:17;21.30;;;15.43;;
60430;SDS011;46285;45.122;20.726;2022-08-21T01:05:44;22.30;;;13.77;;
60430;SDS011;46285;45.122;20.726;2022-08-21T01:08:11;17.67;;;13.23;;
60430;SDS011;46285;45.122;20.726;2022-08-21T01:10:37;22.15;;;14.57;;
60430;SDS011;46285;45.122;20.726;2022-08-21T01:13:04;20.60;;;13.77;;
60430;SDS011;46285;45.122;20.726;2022-08-21T01:15:34;18.67;;;13.90;;
60430;SDS011;46285;45.122;20.726;2022-08-21T01:18:01;17.95;;;14.05;;
60430;SDS011;46285;45.122;20.726;2022-08-21T01:20:28;19.20;;;14.73;;
60430;SDS011;46285;45.122;20.726;2022-08-21T01:22:54;23.48;;;15.55;;
60430;SDS011;46285;45.122;20.726;2022-08-21T01:25:20;21.95;;;14.60;;
60430;SDS011;46285;45.122;20.726;2022-08-21T01:27:47;21.48;;;15.65;;
60430;SDS011;46285;45.122;20.726;2022-08-21T01:30:17;20.77;;;14.93;;
60430;SDS011;46285;45.122;20.726;2022-08-21T01:32:44;24.88;;;15.07;;
60430;SDS011;46285;45.122;20.726;2022-08-21T01:35:11;24.23;;;15.85;;
60430;SDS011;46285;45.122;20.726;2022-08-21T01:37:37;28.55;;;16.33;;
60430;SDS011;46285;45.122;20.726;2022-08-21T01:40:04;25.65;;;15.82;;
60430;SDS011;46285;45.122;20.726;2022-08-21T01:42:30;21.42;;;16.33;;
60430;SDS011;46285;45.122;20.726;2022-08-21T01:44:57;22.60;;;16.23;;
60430;SDS011;46285;45.122;20.726;2022-08-21T01:47:23;25.92;;;16.35;;
60430;SDS011;46285;45.122;20.726;2022-08-21T01:49:49;21.45;;;16.45;;
60430;SDS011;46285;45.122;20.726;2022-08-21T01:52:15;21.35;;;16.10;;
60430;SDS011;46285;45.122;20.726;2022-08-21T01:54:42;23.58;;;17.17;;
60430;SDS011;46285;45.122;20.726;2022-08-21T01:57:08;21.75;;;16.80;;
60430;SDS011;46285;45.122;20.726;2022-08-21T01:59:34;23.52;;;17.50;;
60430;SDS011;46285;45.122;20.726;2022-08-21T02:02:01;22.23;;;18.52;;
60430;SDS011;46285;45.122;20.726;2022-08-21T02:04:28;22.73;;;18.07;;
60430;SDS011;46285;45.122;20.726;2022-08-21T02:06:55;24.65;;;17.15;;
60430;SDS011;46285;45.122;20.726;2022-08-21T02:09:21;22.30;;;18.40;;
60430;SDS011;46285;45.122;20.726;2022-08-21T02:11:47;21.15;;;16.67;;
60430;SDS011;46285;45.122;20.726;2022-08-21T02:14:14;27.35;;;16.88;;
60430;SDS011;46285;45.122;20.726;2022-08-21T02:16:41;26.77;;;17.13;;
60430;SDS011;46285;45.122;20.726;2022-08-21T02:19:08;21.80;;;16.33;;
60430;SDS011;46285;45.122;20.726;2022-08-21T02:21:34;25.37;;;16.90;;
60430;SDS011;46285;45.122;20.726;2022-08-21T02:24:00;24.08;;;16.27;;
60430;SDS011;46285;45.122;20.726;2022-08-21T02:26:26;25.65;;;17.55;;
60430;SDS011;46285;45.122;20.726;2022-08-21T02:28:53;26.80;;;17.73;;
60430;SDS011;46285;45.122;20.726;2022-08-21T02:31:19;21.53;;;16.47;;
60430;SDS011;46285;45.122;20.726;2022-08-21T02:33:45;24.60;;;16.60;;
60430;SDS011;46285;45.122;20.726;2022-08-21T02:36:12;23.50;;;18.25;;
60430;SDS011;46285;45.122;20.726;2022-08-21T02:38:39;26.48;;;18.67;;
60430;SDS011;46285;45.122;20.726;2022-08-21T02:41:06;29.65;;;20.70;;
60430;SDS011;46285;45.122;20.726;2022-08-21T02:43:33;27.02;;;20.90;;
60430;SDS011;46285;45.122;20.726;2022-08-21T02:45:59;25.30;;;19.42;;
60430;SDS011;46285;45.122;20.726;2022-08-21T02:48:27;21.97;;;19.57;;
60430;SDS011;46285;45.122;20.726;2022-08-21T02:50:55;25.40;;;20.08;;
60430;SDS011;46285;45.122;20.726;2022-08-21T02:53:21;21.48;;;18.98;;
60430;SDS011;46285;45.122;20.726;2022-08-21T02:55:48;26.27;;;19.50;;
60430;SDS011;46285;45.122;20.726;2022-08-21T02:58:15;22.38;;;18.58;;
60430;SDS011;46285;45.122;20.726;2022-08-21T03:00:42;24.67;;;19.40;;
60430;SDS011;46285;45.122;20.726;2022-08-21T03:03:09;25.95;;;19.55;;
60430;SDS011;46285;45.122;20.726;2022-08-21T03:05:36;23.92;;;19.45;;
60430;SDS011;46285;45.122;20.726;2022-08-21T03:08:03;27.35;;;20.17;;
60430;SDS011;46285;45.122;20.726;2022-08-21T03:12:56;27.42;;;19.75;;
60430;SDS011;46285;45.122;20.726;2022-08-21T03:15:22;26.30;;;20.40;;
60430;SDS011;46285;45.122;20.726;2022-08-21T03:17:49;24.07;;;20.17;;
60430;SDS011;46285;45.122;20.726;2022-08-21T03:20:16;26.65;;;20.05;;
60430;SDS011;46285;45.122;20.726;2022-08-21T03:22:42;24.98;;;18.70;;
60430;SDS011;46285;45.122;20.726;2022-08-21T03:25:09;23.88;;;18.88;;
60430;SDS011;46285;45.122;20.726;2022-08-21T03:27:36;27.45;;;18.38;;
60430;SDS011;46285;45.122;20.726;2022-08-21T03:30:03;27.40;;;19.23;;
60430;SDS011;46285;45.122;20.726;2022-08-21T03:32:30;21.80;;;18.00;;
60430;SDS011;46285;45.122;20.726;2022-08-21T03:34:57;25.87;;;19.10;;
60430;SDS011;46285;45.122;20.726;2022-08-21T03:37:23;22.33;;;18.15;;
60430;SDS011;46285;45.122;20.726;2022-08-21T03:39:49;26.20;;;19.83;;
60430;SDS011;46285;45.122;20.726;2022-08-21T03:42:16;22.60;;;19.33;;
60430;SDS011;46285;45.122;20.726;2022-08-21T03:44:42;26.48;;;19.58;;
60430;SDS011;46285;45.122;20.726;2022-08-21T03:47:08;21.38;;;18.65;;
60430;SDS011;46285;45.122;20.726;2022-08-21T03:49:34;24.48;;;19.50;;
60430;SDS011;46285;45.122;20.726;2022-08-21T03:52:01;21.52;;;16.98;;
60430;SDS011;46285;45.122;20.726;2022-08-21T03:54:27;22.58;;;17.77;;
60430;SDS011;46285;45.122;20.726;2022-08-21T03:56:53;24.55;;;17.80;;
60430;SDS011;46285;45.122;20.726;2022-08-21T03:59:19;25.05;;;18.17;;
60430;SDS011;46285;45.122;20.726;2022-08-21T04:01:52;22.13;;;19.05;;
60430;SDS011;46285;45.122;20.726;2022-08-21T04:04:19;26.85;;;19.17;;
60430;SDS011;46285;45.122;20.726;2022-08-21T05:07:34;23.98;;;19.40;;
60430;SDS011;46285;45.122;20.726;2022-08-21T05:10:01;22.77;;;18.60;;
60430;SDS011;46285;45.122;20.726;2022-08-21T05:12:27;21.88;;;17.90;;
60430;SDS011;46285;45.122;20.726;2022-08-21T05:14:53;23.80;;;19.13;;
60430;SDS011;46285;45.122;20.726;2022-08-21T05:17:19;20.45;;;17.52;;
60430;SDS011;46285;45.122;20.726;2022-08-21T05:19:46;16.57;;;14.20;;
60430;SDS011;46285;45.122;20.726;2022-08-21T05:22:18;17.42;;;13.70;;
60430;SDS011;46285;45.122;20.726;2022-08-21T05:24:44;16.35;;;12.60;;
60430;SDS011;46285;45.122;20.726;2022-08-21T05:27:10;18.90;;;14.35;;
60430;SDS011;46285;45.122;20.726;2022-08-21T05:29:36;19.30;;;14.20;;
60430;SDS011;46285;45.122;20.726;2022-08-21T05:32:07;20.45;;;13.77;;
60430;SDS011;46285;45.122;20.726;2022-08-21T05:34:34;18.70;;;15.38;;
60430;SDS011;46285;45.122;20.726;2022-08-21T05:37:00;17.35;;;14.90;;
60430;SDS011;46285;45.122;20.726;2022-08-21T05:39:26;16.77;;;14.43;;
60430;SDS011;46285;45.122;20.726;2022-08-21T05:41:52;18.20;;;15.15;;
60430;SDS011;46285;45.122;20.726;2022-08-21T05:44:18;20.15;;;16.08;;
60430;SDS011;46285;45.122;20.726;2022-08-21T05:46:44;19.38;;;15.38;;
60430;SDS011;46285;45.122;20.726;2022-08-21T05:49:11;26.05;;;18.42;;
60430;SDS011;46285;45.122;20.726;2022-08-21T05:51:39;18.75;;;15.35;;
60430;SDS011;46285;45.122;20.726;2022-08-21T05:54:05;21.08;;;15.55;;
60430;SDS011;46285;45.122;20.726;2022-08-21T05:56:31;20.85;;;15.95;;
60430;SDS011;46285;45.122;20.726;2022-08-21T05:58:57;19.65;;;15.60;;
60430;SDS011;46285;45.122;20.726;2022-08-21T06:01:24;20.88;;;16.85;;
60430;SDS011;46285;45.122;20.726;2022-08-21T06:03:50;22.13;;;16.40;;
60430;SDS011;46285;45.122;20.726;2022-08-21T06:06:16;25.60;;;17.48;;
60430;SDS011;46285;45.122;20.726;2022-08-21T06:08:43;20.27;;;16.10;;
60430;SDS011;46285;45.122;20.726;2022-08-21T06:11:09;20.90;;;15.90;;
60430;SDS011;46285;45.122;20.726;2022-08-21T06:13:36;19.95;;;16.13;;
60430;SDS011;46285;45.122;20.726;2022-08-21T06:16:08;21.80;;;17.65;;
60430;SDS011;46285;45.122;20.726;2022-08-21T06:18:34;22.20;;;18.17;;
60430;SDS011;46285;45.122;20.726;2022-08-21T06:21:01;20.08;;;16.95;;
60430;SDS011;46285;45.122;20.726;2022-08-21T06:23:27;23.23;;;18.23;;
60430;SDS011;46285;45.122;20.726;2022-08-21T06:25:53;24.73;;;17.65;;
60430;SDS011;46285;45.122;20.726;2022-08-21T06:28:19;21.65;;;16.95;;
60430;SDS011;46285;45.122;20.726;2022-08-21T06:30:46;20.02;;;17.77;;
60430;SDS011;46285;45.122;20.726;2022-08-21T06:33:12;24.50;;;19.27;;
60430;SDS011;46285;45.122;20.726;2022-08-21T06:35:38;27.08;;;23.38;;
60430;SDS011;46285;45.122;20.726;2022-08-21T06:38:04;33.88;;;23.02;;
60430;SDS011;46285;45.122;20.726;2022-08-21T06:40:30;30.02;;;23.08;;
60430;SDS011;46285;45.122;20.726;2022-08-21T06:43:05;28.58;;;20.23;;
60430;SDS011;46285;45.122;20.726;2022-08-21T06:45:31;24.45;;;16.52;;
60430;SDS011;46285;45.122;20.726;2022-08-21T06:47:57;21.95;;;15.07;;
60430;SDS011;46285;45.122;20.726;2022-08-21T06:50:23;21.27;;;15.77;;
60430;SDS011;46285;45.122;20.726;2022-08-21T06:52:49;19.55;;;13.80;;
60430;SDS011;46285;45.122;20.726;2022-08-21T06:55:23;17.15;;;13.15;;
60430;SDS011;46285;45.122;20.726;2022-08-21T06:57:49;17.17;;;13.18;;
60430;SDS011;46285;45.122;20.726;2022-08-21T07:00:15;17.58;;;13.15;;
60430;SDS011;46285;45.122;20.726;2022-08-21T07:02:41;22.35;;;13.23;;
60430;SDS011;46285;45.122;20.726;2022-08-21T07:05:07;18.67;;;10.20;;
60430;SDS011;46285;45.122;20.726;2022-08-21T07:07:34;18.50;;;12.43;;
60430;SDS011;46285;45.122;20.726;2022-08-21T07:10:00;21.80;;;12.88;;
60430;SDS011;46285;45.122;20.726;2022-08-21T07:12:26;16.02;;;12.35;;
60430;SDS011;46285;45.122;20.726;2022-08-21T07:14:52;13.65;;;10.88;;
60430;SDS011;46285;45.122;20.726;2022-08-21T07:17:18;14.75;;;10.50;;
60430;SDS011;46285;45.122;20.726;2022-08-21T07:19:44;18.60;;;10.95;;
60430;SDS011;46285;45.122;20.726;2022-08-21T07:22:10;15.63;;;10.00;;
60430;SDS011;46285;45.122;20.726;2022-08-21T07:24:37;15.02;;;10.25;;
60430;SDS011;46285;45.122;20.726;2022-08-21T07:27:03;14.48;;;9.20;;
60430;SDS011;46285;45.122;20.726;2022-08-21T07:29:29;12.73;;;9.20;;
60430;SDS011;46285;45.122;20.726;2022-08-21T07:31:56;12.88;;;9.25;;
60430;SDS011;46285;45.122;20.726;2022-08-21T07:34:22;15.82;;;10.45;;
60430;SDS011;46285;45.122;20.726;2022-08-21T07:36:48;19.35;;;11.77;;
60430;SDS011;46285;45.122;20.726;2022-08-21T07:39:14;18.25;;;12.00;;
60430;SDS011;46285;45.122;20.726;2022-08-21T07:41:40;17.60;;;11.93;;
60430;SDS011;46285;45.122;20.726;2022-08-21T07:44:06;18.50;;;13.25;;
60430;SDS011;46285;45.122;20.726;2022-08-21T07:46:32;19.58;;;14.43;;
60430;SDS011;46285;45.122;20.726;2022-08-21T07:48:58;17.73;;;14.07;;
60430;SDS011;46285;45.122;20.726;2022-08-21T07:51:25;21.42;;;13.27;;
60430;SDS011;46285;45.122;20.726;2022-08-21T07:56:18;21.45;;;13.13;;
60430;SDS011;46285;45.122;20.726;2022-08-21T07:58:44;15.50;;;13.02;;
60430;SDS011;46285;45.122;20.726;2022-08-21T08:01:10;22.80;;;13.65;;
60430;SDS011;46285;45.122;20.726;2022-08-21T08:03:37;28.50;;;14.60;;
60430;SDS011;46285;45.122;20.726;2022-08-21T08:06:04;25.02;;;14.85;;
60430;SDS011;46285;45.122;20.726;2022-08-21T08:08:31;20.40;;;15.80;;
60430;SDS011;46285;45.122;20.726;2022-08-21T08:10:57;20.07;;;13.60;;
60430;SDS011;46285;45.122;20.726;2022-08-21T08:15:51;18.58;;;14.00;;
60430;SDS011;46285;45.122;20.726;2022-08-21T08:18:17;23.83;;;15.68;;
60430;SDS011;46285;45.122;20.726;2022-08-21T08:20:43;23.10;;;15.80;;
60430;SDS011;46285;45.122;20.726;2022-08-21T08:23:13;25.25;;;17.00;;
60430;SDS011;46285;45.122;20.726;2022-08-21T08:25:40;21.60;;;16.48;;
60430;SDS011;46285;45.122;20.726;2022-08-21T08:28:07;25.80;;;18.10;;
60430;SDS011;46285;45.122;20.726;2022-08-21T08:30:33;26.33;;;20.57;;
60430;SDS011;46285;45.122;20.726;2022-08-21T08:32:59;26.42;;;18.55;;
60430;SDS011;46285;45.122;20.726;2022-08-21T08:35:26;23.20;;;19.00;;
60430;SDS011;46285;45.122;20.726;2022-08-21T08:37:53;28.10;;;18.85;;
60430;SDS011;46285;45.122;20.726;2022-08-21T08:43:06;25.95;;;18.33;;
60430;SDS011;46285;45.122;20.726;2022-08-21T08:45:34;22.77;;;17.40;;
60430;SDS011;46285;45.122;20.726;2022-08-21T08:48:03;27.75;;;18.55;;
60430;SDS011;46285;45.122;20.726;2022-08-21T08:55:32;23.00;;;17.08;;
60430;SDS011;46285;45.122;20.726;2022-08-21T08:57:59;21.38;;;17.48;;
60430;SDS011;46285;45.122;20.726;2022-08-21T09:00:25;21.97;;;16.97;;
60430;SDS011;46285;45.122;20.726;2022-08-21T09:02:52;22.08;;;15.88;;
60430;SDS011;46285;45.122;20.726;2022-08-21T09:05:25;19.23;;;14.60;;
60430;SDS011;46285;45.122;20.726;2022-08-21T09:13:32;20.75;;;14.98;;
60430;SDS011;46285;45.122;20.726;2022-08-21T09:16:21;23.92;;;15.52;;
60430;SDS011;46285;45.122;20.726;2022-08-21T09:21:28;19.50;;;16.52;;
60430;SDS011;46285;45.122;20.726;2022-08-21T09:24:10;19.33;;;14.93;;
60430;SDS011;46285;45.122;20.726;2022-08-21T09:26:45;16.67;;;13.52;;
60430;SDS011;46285;45.122;20.726;2022-08-21T09:29:13;16.75;;;13.40;;
60430;SDS011;46285;45.122;20.726;2022-08-21T09:31:43;19.05;;;13.05;;
60430;SDS011;46285;45.122;20.726;2022-08-21T09:34:10;17.73;;;13.02;;
60430;SDS011;46285;45.122;20.726;2022-08-21T09:39:05;17.25;;;13.80;;
60430;SDS011;46285;45.122;20.726;2022-08-21T09:41:32;22.55;;;14.73;;
60430;SDS011;46285;45.122;20.726;2022-08-21T09:44:00;17.40;;;15.35;;
60430;SDS011;46285;45.122;20.726;2022-08-21T09:46:27;20.80;;;15.65;;
60430;SDS011;46285;45.122;20.726;2022-08-21T09:49:00;24.38;;;18.88;;
60430;SDS011;46285;45.122;20.726;2022-08-21T09:51:28;27.90;;;20.58;;
60430;SDS011;46285;45.122;20.726;2022-08-21T09:53:56;27.25;;;22.90;;
60430;SDS011;46285;45.122;20.726;2022-08-21T09:56:31;25.10;;;20.45;;
60430;SDS011;46285;45.122;20.726;2022-08-21T09:59:24;21.83;;;17.63;;
60430;SDS011;46285;45.122;20.726;2022-08-21T10:01:51;19.77;;;16.65;;
60430;SDS011;46285;45.122;20.726;2022-08-21T10:04:31;23.00;;;15.63;;
60430;SDS011;46285;45.122;20.726;2022-08-21T10:07:10;20.15;;;16.15;;
60430;SDS011;46285;45.122;20.726;2022-08-21T10:09:37;19.95;;;17.23;;
60430;SDS011;46285;45.122;20.726;2022-08-21T10:14:49;17.38;;;15.52;;
60430;SDS011;46285;45.122;20.726;2022-08-21T10:17:31;20.15;;;15.90;;
60430;SDS011;46285;45.122;20.726;2022-08-21T10:35:28;16.77;;;14.80;;
60430;SDS011;46285;45.122;20.726;2022-08-21T10:38:05;15.10;;;13.50;;
60430;SDS011;46285;45.122;20.726;2022-08-21T10:40:45;19.35;;;15.20;;
60430;SDS011;46285;45.122;20.726;2022-08-21T10:50:52;18.35;;;15.52;;
60430;SDS011;46285;45.122;20.726;2022-08-21T10:55:59;22.95;;;16.60;;
60430;SDS011;46285;45.122;20.726;2022-08-21T10:58:33;17.70;;;15.88;;
60430;SDS011;46285;45.122;20.726;2022-08-21T11:01:09;20.73;;;16.20;;
60430;SDS011;46285;45.122;20.726;2022-08-21T11:03:42;22.15;;;16.98;;
60430;SDS011;46285;45.122;20.726;2022-08-21T11:06:11;23.77;;;17.38;;
60430;SDS011;46285;45.122;20.726;2022-08-21T11:08:39;20.35;;;16.33;;
60430;SDS011;46285;45.122;20.726;2022-08-21T11:11:20;20.75;;;13.48;;
60430;SDS011;46285;45.122;20.726;2022-08-21T11:13:49;17.67;;;12.82;;
60430;SDS011;46285;45.122;20.726;2022-08-21T11:24:14;18.10;;;11.90;;
60430;SDS011;46285;45.122;20.726;2022-08-21T11:29:11;19.25;;;14.07;;
60430;SDS011;46285;45.122;20.726;2022-08-21T11:31:56;16.88;;;13.70;;
60430;SDS011;46285;45.122;20.726;2022-08-21T11:37:05;19.00;;;15.65;;
60430;SDS011;46285;45.122;20.726;2022-08-21T11:40:16;16.83;;;13.23;;
60430;SDS011;46285;45.122;20.726;2022-08-21T11:45:40;17.52;;;14.52;;
60430;SDS011;46285;45.122;20.726;2022-08-21T11:47:58;21.45;;;16.42;;
60430;SDS011;46285;45.122;20.726;2022-08-21T11:50:31;18.63;;;14.32;;
60430;SDS011;46285;45.122;20.726;2022-08-21T11:52:59;11.40;;;8.15;;
60430;SDS011;46285;45.122;20.726;2022-08-21T11:55:47;9.80;;;6.00;;
60430;SDS011;46285;45.122;20.726;2022-08-21T11:58:16;8.32;;;5.50;;
60430;SDS011;46285;45.122;20.726;2022-08-21T12:00:53;7.15;;;3.80;;
60430;SDS011;46285;45.122;20.726;2022-08-21T12:03:40;7.10;;;4.72;;
60430;SDS011;46285;45.122;20.726;2022-08-21T12:06:08;7.57;;;4.80;;
60430;SDS011;46285;45.122;20.726;2022-08-21T12:16:33;10.43;;;5.20;;
60430;SDS011;46285;45.122;20.726;2022-08-21T12:24:20;9.55;;;6.30;;
60430;SDS011;46285;45.122;20.726;2022-08-21T12:26:58;11.27;;;7.28;;
60430;SDS011;46285;45.122;20.726;2022-08-21T12:29:25;12.98;;;7.18;;
60430;SDS011;46285;45.122;20.726;2022-08-21T12:31:54;9.68;;;6.32;;
60430;SDS011;46285;45.122;20.726;2022-08-21T12:34:22;9.95;;;6.70;;
60430;SDS011;46285;45.122;20.726;2022-08-21T12:37:14;9.57;;;6.70;;
60430;SDS011;46285;45.122;20.726;2022-08-21T12:39:36;11.82;;;8.15;;
60430;SDS011;46285;45.122;20.726;2022-08-21T12:42:10;13.27;;;7.85;;
60430;SDS011;46285;45.122;20.726;2022-08-21T12:44:49;13.40;;;7.72;;
60430;SDS011;46285;45.122;20.726;2022-08-21T12:49:45;15.50;;;8.13;;
60430;SDS011;46285;45.122;20.726;2022-08-21T12:52:29;9.43;;;6.85;;
60430;SDS011;46285;45.122;20.726;2022-08-21T12:54:56;10.27;;;6.20;;
60430;SDS011;46285;45.122;20.726;2022-08-21T12:57:26;11.07;;;6.43;;
60430;SDS011;46285;45.122;20.726;2022-08-21T12:59:54;10.85;;;7.80;;
60430;SDS011;46285;45.122;20.726;2022-08-21T13:02:22;12.60;;;7.93;;
60430;SDS011;46285;45.122;20.726;2022-08-21T13:04:49;13.45;;;9.15;;
60430;SDS011;46285;45.122;20.726;2022-08-21T13:07:16;13.38;;;8.63;;
60430;SDS011;46285;45.122;20.726;2022-08-21T13:09:51;12.35;;;8.55;;
60430;SDS011;46285;45.122;20.726;2022-08-21T13:12:18;15.65;;;9.18;;
60430;SDS011;46285;45.122;20.726;2022-08-21T13:14:45;12.55;;;8.57;;
60430;SDS011;46285;45.122;20.726;2022-08-21T13:17:12;14.53;;;9.10;;
60430;SDS011;46285;45.122;20.726;2022-08-21T13:19:39;14.85;;;9.65;;
60430;SDS011;46285;45.122;20.726;2022-08-21T13:22:11;20.33;;;11.98;;
60430;SDS011;46285;45.122;20.726;2022-08-21T13:24:38;14.75;;;10.63;;
60430;SDS011;46285;45.122;20.726;2022-08-21T13:27:15;18.33;;;10.45;;
60430;SDS011;46285;45.122;20.726;2022-08-21T13:29:42;15.80;;;9.93;;
60430;SDS011;46285;45.122;20.726;2022-08-21T13:32:13;17.55;;;9.95;;
60430;SDS011;46285;45.122;20.726;2022-08-21T13:34:43;15.63;;;9.85;;
60430;SDS011;46285;45.122;20.726;2022-08-21T13:37:09;13.35;;;10.43;;
60430;SDS011;46285;45.122;20.726;2022-08-21T13:39:37;16.52;;;12.18;;
60430;SDS011;46285;45.122;20.726;2022-08-21T13:42:04;14.60;;;10.30;;
60430;SDS011;46285;45.122;20.726;2022-08-21T13:44:41;12.57;;;9.02;;
60430;SDS011;46285;45.122;20.726;2022-08-21T13:47:08;14.32;;;9.90;;
60430;SDS011;46285;45.122;20.726;2022-08-21T13:49:36;15.70;;;10.32;;
60430;SDS011;46285;45.122;20.726;2022-08-21T13:54:32;13.55;;;10.18;;
60430;SDS011;46285;45.122;20.726;2022-08-21T13:56:59;14.00;;;10.65;;
60430;SDS011;46285;45.122;20.726;2022-08-21T13:59:29;15.35;;;10.13;;
60430;SDS011;46285;45.122;20.726;2022-08-21T14:01:57;12.32;;;10.30;;
60430;SDS011;46285;45.122;20.726;2022-08-21T14:04:26;17.05;;;12.20;;
60430;SDS011;46285;45.122;20.726;2022-08-21T14:06:55;16.02;;;9.63;;
60430;SDS011;46285;45.122;20.726;2022-08-21T14:09:32;17.08;;;10.82;;
60430;SDS011;46285;45.122;20.726;2022-08-21T14:12:01;13.20;;;9.10;;
60430;SDS011;46285;45.122;20.726;2022-08-21T14:14:33;12.48;;;7.97;;
60430;SDS011;46285;45.122;20.726;2022-08-21T14:17:01;19.92;;;9.18;;
60430;SDS011;46285;45.122;20.726;2022-08-21T14:19:49;11.38;;;6.68;;
60430;SDS011;46285;45.122;20.726;2022-08-21T14:22:28;9.80;;;5.53;;
60430;SDS011;46285;45.122;20.726;2022-08-21T14:25:01;13.50;;;6.90;;
60430;SDS011;46285;45.122;20.726;2022-08-21T14:27:30;9.73;;;5.50;;
60430;SDS011;46285;45.122;20.726;2022-08-21T14:30:04;18.15;;;7.68;;
60430;SDS011;46285;45.122;20.726;2022-08-21T14:32:39;12.63;;;5.93;;
60430;SDS011;46285;45.122;20.726;2022-08-21T14:35:06;11.90;;;5.82;;
60430;SDS011;46285;45.122;20.726;2022-08-21T14:37:32;11.73;;;6.63;;
60430;SDS011;46285;45.122;20.726;2022-08-21T14:39:58;16.35;;;7.18;;
60430;SDS011;46285;45.122;20.726;2022-08-21T14:42:24;12.18;;;5.68;;
60430;SDS011;46285;45.122;20.726;2022-08-21T14:44:51;10.77;;;7.32;;
60430;SDS011;46285;45.122;20.726;2022-08-21T14:47:17;14.43;;;7.00;;
60430;SDS011;46285;45.122;20.726;2022-08-21T14:49:43;13.23;;;8.57;;
60430;SDS011;46285;45.122;20.726;2022-08-21T14:52:09;13.52;;;8.13;;
60430;SDS011;46285;45.122;20.726;2022-08-21T14:54:35;10.07;;;7.72;;
60430;SDS011;46285;45.122;20.726;2022-08-21T14:57:04;13.48;;;8.43;;
60430;SDS011;46285;45.122;20.726;2022-08-21T14:59:43;12.35;;;7.75;;
60430;SDS011;46285;45.122;20.726;2022-08-21T15:02:13;13.18;;;6.80;;
60430;SDS011;46285;45.122;20.726;2022-08-21T15:04:39;16.08;;;7.07;;
60430;SDS011;46285;45.122;20.726;2022-08-21T15:07:07;13.18;;;6.70;;
60430;SDS011;46285;45.122;20.726;2022-08-21T15:09:33;11.82;;;6.15;;
60430;SDS011;46285;45.122;20.726;2022-08-21T15:12:00;30.98;;;7.43;;
60430;SDS011;46285;45.122;20.726;2022-08-21T15:14:27;9.73;;;5.90;;
60430;SDS011;46285;45.122;20.726;2022-08-21T15:16:53;9.43;;;5.53;;
60430;SDS011;46285;45.122;20.726;2022-08-21T15:19:21;11.13;;;6.03;;
60430;SDS011;46285;45.122;20.726;2022-08-21T15:21:49;10.95;;;6.65;;
60430;SDS011;46285;45.122;20.726;2022-08-21T15:24:25;10.45;;;5.82;;
60430;SDS011;46285;45.122;20.726;2022-08-21T15:26:52;10.02;;;6.05;;
60430;SDS011;46285;45.122;20.726;2022-08-21T15:29:19;8.82;;;5.57;;
60430;SDS011;46285;45.122;20.726;2022-08-21T15:31:56;10.82;;;6.15;;
60430;SDS011;46285;45.122;20.726;2022-08-21T15:36:58;9.75;;;5.68;;
60430;SDS011;46285;45.122;20.726;2022-08-21T15:39:25;8.52;;;5.07;;
60430;SDS011;46285;45.122;20.726;2022-08-21T15:42:00;13.90;;;5.20;;
60430;SDS011;46285;45.122;20.726;2022-08-21T15:44:54;8.85;;;5.70;;
60430;SDS011;46285;45.122;20.726;2022-08-21T15:47:30;11.18;;;6.10;;
60430;SDS011;46285;45.122;20.726;2022-08-21T15:49:58;8.32;;;6.28;;
60430;SDS011;46285;45.122;20.726;2022-08-21T15:52:28;14.90;;;6.22;;
60430;SDS011;46285;45.122;20.726;2022-08-21T15:54:57;8.23;;;5.97;;
60430;SDS011;46285;45.122;20.726;2022-08-21T15:57:23;10.10;;;6.65;;
60430;SDS011;46285;45.122;20.726;2022-08-21T15:59:57;11.40;;;5.63;;
60430;SDS011;46285;45.122;20.726;2022-08-21T16:02:27;10.25;;;7.40;;
60430;SDS011;46285;45.122;20.726;2022-08-21T16:07:47;11.05;;;8.50;;
60430;SDS011;46285;45.122;20.726;2022-08-21T16:10:16;14.10;;;9.73;;
60430;SDS011;46285;45.122;20.726;2022-08-21T16:15:40;14.05;;;10.48;;
60430;SDS011;46285;45.122;20.726;2022-08-21T16:18:06;17.65;;;11.00;;
60430;SDS011;46285;45.122;20.726;2022-08-21T16:20:33;12.98;;;11.13;;
60430;SDS011;46285;45.122;20.726;2022-08-21T16:22:59;14.70;;;10.55;;
60430;SDS011;46285;45.122;20.726;2022-08-21T16:25:37;15.25;;;11.80;;
60430;SDS011;46285;45.122;20.726;2022-08-21T16:28:35;13.15;;;11.27;;
60430;SDS011;46285;45.122;20.726;2022-08-21T16:31:29;14.20;;;11.40;;
60430;SDS011;46285;45.122;20.726;2022-08-21T16:34:12;14.20;;;10.45;;
60430;SDS011;46285;45.122;20.726;2022-08-21T16:36:50;11.75;;;9.70;;
60430;SDS011;46285;45.122;20.726;2022-08-21T16:39:30;11.65;;;9.45;;
60430;SDS011;46285;45.122;20.726;2022-08-21T16:42:09;13.20;;;9.85;;
60430;SDS011;46285;45.122;20.726;2022-08-21T16:45:18;13.65;;;10.15;;
60430;SDS011;46285;45.122;20.726;2022-08-21T16:48:16;11.05;;;8.85;;
60430;SDS011;46285;45.122;20.726;2022-08-21T16:53:58;16.88;;;8.82;;
60430;SDS011;46285;45.122;20.726;2022-08-21T16:56:30;12.20;;;8.90;;
60430;SDS011;46285;45.122;20.726;2022-08-21T16:58:57;16.63;;;10.10;;
60430;SDS011;46285;45.122;20.726;2022-08-21T17:01:25;13.27;;;9.18;;
60430;SDS011;46285;45.122;20.726;2022-08-21T17:03:52;14.43;;;10.00;;
60430;SDS011;46285;45.122;20.726;2022-08-21T17:06:19;12.70;;;10.50;;